Back to top

Gillette, WY weather

Gillette-Campbell County Airport (AMOS), Gillette, WY: 6/04/2020 03:53
Visibility10 statute milesclear sky
View 7-Day Forecast
Area Summary
Sky/CloudsSky Clear
Weather [last 24 hours]None [rain began 21:03 ended 21:38 ]
Pressure29.91 in.Hg (1013 hPa)
Dew Point46 °F (7.8 °C)
Relative Humidity96.7 %
Last 24-Hour Precip.Trace
Reading TimePrecipitation
6-hr ending 6/3@23:53Trace
Temperature46.9 °F (8.3 °C)red thermometer
Wind Chill43.5 °F (6.39 °C)
Reading TimeMinimum to Maximum Temperature
6-hr ending 6/3@23:5355 °F to 82.9 °F (12.8 °C to 28.3 °C)
6-hr ending 6/3@17:5375.9 °F to 82 °F (24.4 °C to 27.8 °C)
6-hr ending 6/3@11:5357.9 °F to 77 °F (14.4 °C to 25 °C)
6-hr ending 6/3@05:5359 °F to 66 °F (15 °C to 18.9 °C)
24-hr ending 6/4@00:5353.1 °F to 82.9 °F (11.7 °C to 28.3 °C)
Wind6.9 MPH (6 KT) green arrow pointing 292.5 degrees
Wind FromWest/Northwest (300 Degrees)
Rolling 24-hr Peak Wind43.7 MPH (38 KT) on 6/3@21:15
Rolling 24-hr Peak Wind FromNorthwest (310 Degrees)
Twilight Begins04:41Sunshine Yesterday
Sunrise05:17N/A
Sunset20:45
Twilight Ends21:21
METARKGCC 040953Z AUTO 30006KT 10SM CLR 08/08 A2991 RMK AO2 SLP093 T00830078
Tags: